sensor_id;sensor_type;location;lat;lon;timestamp;P1;durP1;ratioP1;P2;durP2;ratioP2
43152;SDS011;28756;49.064;9.290;2023-11-21T00:01:46;2.75;;;0.95;;
43152;SDS011;28756;49.064;9.290;2023-11-21T00:04:12;3.88;;;1.02;;
43152;SDS011;28756;49.064;9.290;2023-11-21T00:06:38;1.70;;;0.90;;
43152;SDS011;28756;49.064;9.290;2023-11-21T00:09:03;4.35;;;1.17;;
43152;SDS011;28756;49.064;9.290;2023-11-21T00:11:30;2.13;;;0.90;;
43152;SDS011;28756;49.064;9.290;2023-11-21T00:13:55;1.52;;;0.80;;
43152;SDS011;28756;49.064;9.290;2023-11-21T00:16:21;3.33;;;0.70;;
43152;SDS011;28756;49.064;9.290;2023-11-21T00:18:47;2.40;;;1.08;;
43152;SDS011;28756;49.064;9.290;2023-11-21T00:21:13;3.15;;;0.90;;
43152;SDS011;28756;49.064;9.290;2023-11-21T00:23:38;3.22;;;0.70;;
43152;SDS011;28756;49.064;9.290;2023-11-21T00:26:04;1.33;;;0.88;;
43152;SDS011;28756;49.064;9.290;2023-11-21T00:28:30;3.42;;;1.45;;
43152;SDS011;28756;49.064;9.290;2023-11-21T00:30:55;3.03;;;1.17;;
43152;SDS011;28756;49.064;9.290;2023-11-21T00:33:21;1.45;;;0.85;;
43152;SDS011;28756;49.064;9.290;2023-11-21T00:35:46;1.73;;;0.90;;
43152;SDS011;28756;49.064;9.290;2023-11-21T00:38:12;1.75;;;0.90;;
43152;SDS011;28756;49.064;9.290;2023-11-21T00:40:37;1.75;;;0.80;;
43152;SDS011;28756;49.064;9.290;2023-11-21T00:43:03;1.60;;;0.70;;
43152;SDS011;28756;49.064;9.290;2023-11-21T00:45:29;2.20;;;1.10;;
43152;SDS011;28756;49.064;9.290;2023-11-21T00:47:54;2.08;;;0.70;;
43152;SDS011;28756;49.064;9.290;2023-11-21T00:50:21;2.00;;;0.90;;
43152;SDS011;28756;49.064;9.290;2023-11-21T00:52:47;2.80;;;1.00;;
43152;SDS011;28756;49.064;9.290;2023-11-21T00:55:12;2.53;;;0.80;;
43152;SDS011;28756;49.064;9.290;2023-11-21T00:57:38;1.58;;;0.82;;
43152;SDS011;28756;49.064;9.290;2023-11-21T01:00:05;1.70;;;0.80;;
43152;SDS011;28756;49.064;9.290;2023-11-21T01:02:33;2.08;;;0.73;;
43152;SDS011;28756;49.064;9.290;2023-11-21T01:05:00;2.78;;;0.90;;
43152;SDS011;28756;49.064;9.290;2023-11-21T01:07:26;2.17;;;0.70;;
43152;SDS011;28756;49.064;9.290;2023-11-21T01:09:52;2.30;;;0.80;;
43152;SDS011;28756;49.064;9.290;2023-11-21T01:12:17;3.40;;;0.90;;
43152;SDS011;28756;49.064;9.290;2023-11-21T01:14:43;1.15;;;0.73;;
43152;SDS011;28756;49.064;9.290;2023-11-21T01:17:10;1.35;;;0.70;;
43152;SDS011;28756;49.064;9.290;2023-11-21T01:19:35;1.52;;;0.70;;
43152;SDS011;28756;49.064;9.290;2023-11-21T01:22:02;2.17;;;0.70;;
43152;SDS011;28756;49.064;9.290;2023-11-21T01:24:28;1.55;;;0.90;;
43152;SDS011;28756;49.064;9.290;2023-11-21T01:26:54;2.78;;;0.73;;
43152;SDS011;28756;49.064;9.290;2023-11-21T01:29:20;1.85;;;0.77;;
43152;SDS011;28756;49.064;9.290;2023-11-21T01:31:45;3.08;;;1.00;;
43152;SDS011;28756;49.064;9.290;2023-11-21T01:34:12;1.77;;;0.80;;
43152;SDS011;28756;49.064;9.290;2023-11-21T01:36:37;2.35;;;0.95;;
43152;SDS011;28756;49.064;9.290;2023-11-21T01:39:03;3.38;;;0.80;;
43152;SDS011;28756;49.064;9.290;2023-11-21T01:41:33;1.90;;;0.80;;
43152;SDS011;28756;49.064;9.290;2023-11-21T01:44:00;2.92;;;1.20;;
43152;SDS011;28756;49.064;9.290;2023-11-21T01:46:25;2.72;;;0.82;;
43152;SDS011;28756;49.064;9.290;2023-11-21T01:48:51;2.22;;;0.82;;
43152;SDS011;28756;49.064;9.290;2023-11-21T01:51:18;1.70;;;0.80;;
43152;SDS011;28756;49.064;9.290;2023-11-21T01:53:44;1.60;;;0.90;;
43152;SDS011;28756;49.064;9.290;2023-11-21T01:56:11;2.08;;;0.80;;
43152;SDS011;28756;49.064;9.290;2023-11-21T01:58:38;2.83;;;1.13;;
43152;SDS011;28756;49.064;9.290;2023-11-21T02:01:04;2.35;;;1.02;;
43152;SDS011;28756;49.064;9.290;2023-11-21T02:03:30;2.13;;;0.98;;
43152;SDS011;28756;49.064;9.290;2023-11-21T02:05:56;2.20;;;0.85;;
43152;SDS011;28756;49.064;9.290;2023-11-21T02:08:21;1.27;;;0.82;;
43152;SDS011;28756;49.064;9.290;2023-11-21T02:10:47;2.30;;;1.00;;
43152;SDS011;28756;49.064;9.290;2023-11-21T02:13:13;3.33;;;1.20;;
43152;SDS011;28756;49.064;9.290;2023-11-21T02:15:38;2.53;;;1.10;;
43152;SDS011;28756;49.064;9.290;2023-11-21T02:18:04;1.45;;;0.98;;
43152;SDS011;28756;49.064;9.290;2023-11-21T02:20:30;1.60;;;0.95;;
43152;SDS011;28756;49.064;9.290;2023-11-21T02:22:59;3.65;;;1.13;;
43152;SDS011;28756;49.064;9.290;2023-11-21T02:27:52;1.65;;;1.00;;
43152;SDS011;28756;49.064;9.290;2023-11-21T02:30:19;3.35;;;1.08;;
43152;SDS011;28756;49.064;9.290;2023-11-21T02:32:46;1.95;;;0.95;;
43152;SDS011;28756;49.064;9.290;2023-11-21T02:35:14;4.78;;;1.38;;
43152;SDS011;28756;49.064;9.290;2023-11-21T02:37:41;3.15;;;1.00;;
43152;SDS011;28756;49.064;9.290;2023-11-21T02:40:08;2.83;;;1.30;;
43152;SDS011;28756;49.064;9.290;2023-11-21T02:42:35;3.35;;;1.00;;
43152;SDS011;28756;49.064;9.290;2023-11-21T02:45:01;3.63;;;1.10;;
43152;SDS011;28756;49.064;9.290;2023-11-21T02:47:26;3.10;;;1.17;;
43152;SDS011;28756;49.064;9.290;2023-11-21T02:49:52;3.08;;;1.00;;
43152;SDS011;28756;49.064;9.290;2023-11-21T02:52:18;3.45;;;1.00;;
43152;SDS011;28756;49.064;9.290;2023-11-21T02:54:44;1.65;;;0.73;;
43152;SDS011;28756;49.064;9.290;2023-11-21T02:57:09;1.08;;;0.90;;
43152;SDS011;28756;49.064;9.290;2023-11-21T02:59:35;1.73;;;0.70;;
43152;SDS011;28756;49.064;9.290;2023-11-21T03:02:01;1.40;;;0.70;;
43152;SDS011;28756;49.064;9.290;2023-11-21T03:04:26;2.08;;;1.10;;
43152;SDS011;28756;49.064;9.290;2023-11-21T03:06:52;1.73;;;0.80;;
43152;SDS011;28756;49.064;9.290;2023-11-21T03:09:17;2.83;;;1.00;;
43152;SDS011;28756;49.064;9.290;2023-11-21T03:11:43;2.15;;;0.93;;
43152;SDS011;28756;49.064;9.290;2023-11-21T03:14:08;1.92;;;0.90;;
43152;SDS011;28756;49.064;9.290;2023-11-21T03:16:34;1.95;;;0.90;;
43152;SDS011;28756;49.064;9.290;2023-11-21T03:19:00;2.83;;;1.13;;
43152;SDS011;28756;49.064;9.290;2023-11-21T03:21:25;1.45;;;0.85;;
43152;SDS011;28756;49.064;9.290;2023-11-21T03:23:51;3.03;;;0.90;;
43152;SDS011;28756;49.064;9.290;2023-11-21T03:26:17;2.60;;;1.00;;
43152;SDS011;28756;49.064;9.290;2023-11-21T03:28:43;2.03;;;0.93;;
43152;SDS011;28756;49.064;9.290;2023-11-21T03:31:09;2.42;;;0.90;;
43152;SDS011;28756;49.064;9.290;2023-11-21T03:33:35;4.60;;;0.90;;
43152;SDS011;28756;49.064;9.290;2023-11-21T03:36:00;1.30;;;0.73;;
43152;SDS011;28756;49.064;9.290;2023-11-21T03:38:26;2.90;;;0.80;;
43152;SDS011;28756;49.064;9.290;2023-11-21T03:40:52;2.05;;;0.70;;
43152;SDS011;28756;49.064;9.290;2023-11-21T03:43:18;1.67;;;0.80;;
43152;SDS011;28756;49.064;9.290;2023-11-21T03:45:43;1.55;;;0.70;;
43152;SDS011;28756;49.064;9.290;2023-11-21T03:48:09;1.67;;;1.05;;
43152;SDS011;28756;49.064;9.290;2023-11-21T03:50:37;2.38;;;0.80;;
43152;SDS011;28756;49.064;9.290;2023-11-21T03:53:03;1.80;;;0.85;;
43152;SDS011;28756;49.064;9.290;2023-11-21T03:55:29;1.25;;;0.90;;
43152;SDS011;28756;49.064;9.290;2023-11-21T03:57:56;1.75;;;0.98;;
43152;SDS011;28756;49.064;9.290;2023-11-21T04:00:22;1.95;;;1.00;;
43152;SDS011;28756;49.064;9.290;2023-11-21T04:02:48;4.22;;;1.30;;
43152;SDS011;28756;49.064;9.290;2023-11-21T04:05:13;1.80;;;0.80;;
43152;SDS011;28756;49.064;9.290;2023-11-21T04:07:39;1.60;;;0.82;;
43152;SDS011;28756;49.064;9.290;2023-11-21T04:10:05;2.10;;;0.90;;
43152;SDS011;28756;49.064;9.290;2023-11-21T04:12:33;1.80;;;0.95;;
43152;SDS011;28756;49.064;9.290;2023-11-21T04:14:59;1.92;;;0.70;;
43152;SDS011;28756;49.064;9.290;2023-11-21T04:17:25;4.15;;;1.00;;
43152;SDS011;28756;49.064;9.290;2023-11-21T04:19:50;1.45;;;0.80;;
43152;SDS011;28756;49.064;9.290;2023-11-21T04:22:16;3.13;;;1.00;;
43152;SDS011;28756;49.064;9.290;2023-11-21T04:24:41;1.92;;;0.90;;
43152;SDS011;28756;49.064;9.290;2023-11-21T04:27:07;2.85;;;0.82;;
43152;SDS011;28756;49.064;9.290;2023-11-21T04:29:33;2.38;;;0.88;;
43152;SDS011;28756;49.064;9.290;2023-11-21T04:31:58;2.15;;;0.88;;
43152;SDS011;28756;49.064;9.290;2023-11-21T04:34:24;2.45;;;1.05;;
43152;SDS011;28756;49.064;9.290;2023-11-21T04:36:50;2.45;;;0.90;;
43152;SDS011;28756;49.064;9.290;2023-11-21T04:39:15;2.33;;;0.80;;
43152;SDS011;28756;49.064;9.290;2023-11-21T04:41:41;2.88;;;1.15;;
43152;SDS011;28756;49.064;9.290;2023-11-21T04:44:07;2.90;;;1.00;;
43152;SDS011;28756;49.064;9.290;2023-11-21T04:46:33;1.58;;;1.00;;
43152;SDS011;28756;49.064;9.290;2023-11-21T04:48:58;2.15;;;0.80;;
43152;SDS011;28756;49.064;9.290;2023-11-21T04:51:24;1.45;;;0.90;;
43152;SDS011;28756;49.064;9.290;2023-11-21T04:53:49;2.40;;;1.00;;
43152;SDS011;28756;49.064;9.290;2023-11-21T04:56:15;0.93;;;0.82;;
43152;SDS011;28756;49.064;9.290;2023-11-21T04:58:43;1.92;;;1.08;;
43152;SDS011;28756;49.064;9.290;2023-11-21T05:01:09;1.27;;;0.82;;
43152;SDS011;28756;49.064;9.290;2023-11-21T05:03:34;1.92;;;1.00;;
43152;SDS011;28756;49.064;9.290;2023-11-21T05:06:00;1.63;;;1.00;;
43152;SDS011;28756;49.064;9.290;2023-11-21T05:08:26;3.33;;;1.13;;
43152;SDS011;28756;49.064;9.290;2023-11-21T05:10:52;2.60;;;0.80;;
43152;SDS011;28756;49.064;9.290;2023-11-21T05:13:18;2.42;;;1.00;;
43152;SDS011;28756;49.064;9.290;2023-11-21T05:15:45;2.50;;;0.95;;
43152;SDS011;28756;49.064;9.290;2023-11-21T05:18:10;2.65;;;0.90;;
43152;SDS011;28756;49.064;9.290;2023-11-21T05:20:36;1.83;;;0.90;;
43152;SDS011;28756;49.064;9.290;2023-11-21T05:23:03;1.25;;;0.73;;
43152;SDS011;28756;49.064;9.290;2023-11-21T05:25:28;1.10;;;0.75;;
43152;SDS011;28756;49.064;9.290;2023-11-21T05:27:54;2.10;;;0.90;;
43152;SDS011;28756;49.064;9.290;2023-11-21T05:30:20;1.20;;;0.80;;
43152;SDS011;28756;49.064;9.290;2023-11-21T05:32:47;2.08;;;0.77;;
43152;SDS011;28756;49.064;9.290;2023-11-21T05:35:12;1.85;;;0.95;;
43152;SDS011;28756;49.064;9.290;2023-11-21T05:37:41;1.67;;;0.98;;
43152;SDS011;28756;49.064;9.290;2023-11-21T05:40:07;1.60;;;0.95;;
43152;SDS011;28756;49.064;9.290;2023-11-21T05:42:33;1.77;;;0.95;;
43152;SDS011;28756;49.064;9.290;2023-11-21T05:45:00;2.70;;;1.13;;
43152;SDS011;28756;49.064;9.290;2023-11-21T05:47:35;1.60;;;0.90;;
43152;SDS011;28756;49.064;9.290;2023-11-21T05:50:02;1.90;;;0.80;;
43152;SDS011;28756;49.064;9.290;2023-11-21T05:52:28;1.60;;;0.85;;
43152;SDS011;28756;49.064;9.290;2023-11-21T05:54:54;1.50;;;0.80;;
43152;SDS011;28756;49.064;9.290;2023-11-21T05:57:19;1.20;;;0.80;;
43152;SDS011;28756;49.064;9.290;2023-11-21T05:59:45;1.55;;;0.90;;
43152;SDS011;28756;49.064;9.290;2023-11-21T06:02:11;1.40;;;0.90;;
43152;SDS011;28756;49.064;9.290;2023-11-21T06:04:36;1.65;;;0.80;;
43152;SDS011;28756;49.064;9.290;2023-11-21T06:07:02;2.30;;;1.20;;
43152;SDS011;28756;49.064;9.290;2023-11-21T06:09:28;1.77;;;1.00;;
43152;SDS011;28756;49.064;9.290;2023-11-21T06:11:53;1.38;;;0.90;;
43152;SDS011;28756;49.064;9.290;2023-11-21T06:14:19;1.13;;;0.95;;
43152;SDS011;28756;49.064;9.290;2023-11-21T06:16:44;1.40;;;1.00;;
43152;SDS011;28756;49.064;9.290;2023-11-21T06:19:10;2.10;;;1.10;;
43152;SDS011;28756;49.064;9.290;2023-11-21T06:21:36;1.83;;;1.25;;
43152;SDS011;28756;49.064;9.290;2023-11-21T06:24:01;2.47;;;1.42;;
43152;SDS011;28756;49.064;9.290;2023-11-21T06:26:27;4.47;;;1.38;;
43152;SDS011;28756;49.064;9.290;2023-11-21T06:28:53;1.13;;;1.00;;
43152;SDS011;28756;49.064;9.290;2023-11-21T06:31:18;1.40;;;1.10;;
43152;SDS011;28756;49.064;9.290;2023-11-21T06:33:44;2.00;;;1.20;;
43152;SDS011;28756;49.064;9.290;2023-11-21T06:36:10;1.73;;;1.00;;
43152;SDS011;28756;49.064;9.290;2023-11-21T06:38:36;1.75;;;0.90;;
43152;SDS011;28756;49.064;9.290;2023-11-21T06:41:02;2.17;;;1.00;;
43152;SDS011;28756;49.064;9.290;2023-11-21T06:43:29;1.92;;;1.30;;
43152;SDS011;28756;49.064;9.290;2023-11-21T06:45:56;2.15;;;1.20;;
43152;SDS011;28756;49.064;9.290;2023-11-21T06:48:22;2.10;;;1.20;;
43152;SDS011;28756;49.064;9.290;2023-11-21T06:50:47;1.50;;;1.20;;
43152;SDS011;28756;49.064;9.290;2023-11-21T06:53:13;1.55;;;1.25;;
43152;SDS011;28756;49.064;9.290;2023-11-21T06:55:54;2.80;;;1.60;;
43152;SDS011;28756;49.064;9.290;2023-11-21T06:58:20;3.35;;;1.35;;
43152;SDS011;28756;49.064;9.290;2023-11-21T07:00:45;2.28;;;1.52;;
43152;SDS011;28756;49.064;9.290;2023-11-21T07:03:13;2.90;;;1.48;;
43152;SDS011;28756;49.064;9.290;2023-11-21T07:05:39;2.33;;;1.50;;
43152;SDS011;28756;49.064;9.290;2023-11-21T07:08:04;1.55;;;1.40;;
43152;SDS011;28756;49.064;9.290;2023-11-21T07:10:30;2.15;;;1.75;;
43152;SDS011;28756;49.064;9.290;2023-11-21T07:12:56;1.55;;;1.40;;
43152;SDS011;28756;49.064;9.290;2023-11-21T07:15:22;2.72;;;1.90;;
43152;SDS011;28756;49.064;9.290;2023-11-21T07:17:47;3.22;;;2.28;;
43152;SDS011;28756;49.064;9.290;2023-11-21T07:20:13;2.47;;;1.30;;
43152;SDS011;28756;49.064;9.290;2023-11-21T07:22:42;2.60;;;1.63;;
43152;SDS011;28756;49.064;9.290;2023-11-21T07:25:08;3.58;;;1.25;;
43152;SDS011;28756;49.064;9.290;2023-11-21T07:27:37;2.22;;;1.45;;
43152;SDS011;28756;49.064;9.290;2023-11-21T07:30:02;1.92;;;1.30;;
43152;SDS011;28756;49.064;9.290;2023-11-21T07:32:31;1.40;;;1.25;;
43152;SDS011;28756;49.064;9.290;2023-11-21T07:34:56;2.97;;;1.38;;
43152;SDS011;28756;49.064;9.290;2023-11-21T07:37:24;3.25;;;1.45;;
43152;SDS011;28756;49.064;9.290;2023-11-21T07:39:51;2.63;;;2.05;;
43152;SDS011;28756;49.064;9.290;2023-11-21T07:42:21;1.83;;;1.60;;
43152;SDS011;28756;49.064;9.290;2023-11-21T07:44:48;3.63;;;1.92;;
43152;SDS011;28756;49.064;9.290;2023-11-21T07:47:15;4.40;;;1.90;;
43152;SDS011;28756;49.064;9.290;2023-11-21T07:49:41;3.22;;;1.90;;
43152;SDS011;28756;49.064;9.290;2023-11-21T07:52:08;3.00;;;1.88;;
43152;SDS011;28756;49.064;9.290;2023-11-21T07:54:34;2.28;;;1.88;;
43152;SDS011;28756;49.064;9.290;2023-11-21T07:57:01;1.98;;;1.58;;
43152;SDS011;28756;49.064;9.290;2023-11-21T07:59:27;3.85;;;1.90;;
43152;SDS011;28756;49.064;9.290;2023-11-21T08:01:53;4.97;;;2.67;;
43152;SDS011;28756;49.064;9.290;2023-11-21T08:04:19;3.75;;;2.20;;
43152;SDS011;28756;49.064;9.290;2023-11-21T08:06:44;2.85;;;2.03;;
43152;SDS011;28756;49.064;9.290;2023-11-21T08:09:10;2.72;;;1.70;;
43152;SDS011;28756;49.064;9.290;2023-11-21T08:11:37;1.92;;;1.52;;
43152;SDS011;28756;49.064;9.290;2023-11-21T08:14:04;2.38;;;1.83;;
43152;SDS011;28756;49.064;9.290;2023-11-21T08:16:30;3.13;;;1.80;;
43152;SDS011;28756;49.064;9.290;2023-11-21T08:18:55;2.63;;;1.98;;
43152;SDS011;28756;49.064;9.290;2023-11-21T08:21:21;2.10;;;1.90;;
43152;SDS011;28756;49.064;9.290;2023-11-21T08:23:49;2.55;;;2.10;;
43152;SDS011;28756;49.064;9.290;2023-11-21T08:26:18;2.95;;;1.60;;
43152;SDS011;28756;49.064;9.290;2023-11-21T08:28:44;3.05;;;1.80;;
43152;SDS011;28756;49.064;9.290;2023-11-21T08:31:10;4.22;;;2.33;;
43152;SDS011;28756;49.064;9.290;2023-11-21T08:33:35;4.75;;;2.17;;
43152;SDS011;28756;49.064;9.290;2023-11-21T08:36:01;2.25;;;1.80;;
43152;SDS011;28756;49.064;9.290;2023-11-21T08:38:32;3.15;;;1.60;;
43152;SDS011;28756;49.064;9.290;2023-11-21T08:40:58;2.92;;;1.48;;
43152;SDS011;28756;49.064;9.290;2023-11-21T08:43:25;1.95;;;1.30;;
43152;SDS011;28756;49.064;9.290;2023-11-21T08:45:52;1.75;;;1.10;;
43152;SDS011;28756;49.064;9.290;2023-11-21T08:48:18;2.85;;;1.33;;
43152;SDS011;28756;49.064;9.290;2023-11-21T08:50:43;1.77;;;1.23;;
43152;SDS011;28756;49.064;9.290;2023-11-21T08:53:09;1.85;;;1.38;;
43152;SDS011;28756;49.064;9.290;2023-11-21T08:55:36;2.67;;;1.52;;
43152;SDS011;28756;49.064;9.290;2023-11-21T08:58:02;2.35;;;1.17;;
43152;SDS011;28756;49.064;9.290;2023-11-21T09:00:30;1.58;;;1.48;;
43152;SDS011;28756;49.064;9.290;2023-11-21T09:02:56;2.17;;;1.67;;
43152;SDS011;28756;49.064;9.290;2023-11-21T09:05:22;1.75;;;1.40;;
43152;SDS011;28756;49.064;9.290;2023-11-21T09:07:48;3.05;;;1.70;;
43152;SDS011;28756;49.064;9.290;2023-11-21T09:10:14;1.48;;;1.30;;
43152;SDS011;28756;49.064;9.290;2023-11-21T09:12:39;1.48;;;1.23;;
43152;SDS011;28756;49.064;9.290;2023-11-21T09:15:06;1.55;;;1.17;;
43152;SDS011;28756;49.064;9.290;2023-11-21T09:17:32;1.75;;;1.30;;
43152;SDS011;28756;49.064;9.290;2023-11-21T09:19:59;2.90;;;1.50;;
43152;SDS011;28756;49.064;9.290;2023-11-21T09:22:24;3.05;;;1.48;;
43152;SDS011;28756;49.064;9.290;2023-11-21T09:24:50;2.08;;;1.60;;
43152;SDS011;28756;49.064;9.290;2023-11-21T09:27:17;1.48;;;1.30;;
43152;SDS011;28756;49.064;9.290;2023-11-21T09:29:42;1.50;;;1.20;;
43152;SDS011;28756;49.064;9.290;2023-11-21T09:32:08;2.03;;;1.42;;
43152;SDS011;28756;49.064;9.290;2023-11-21T09:34:37;1.60;;;1.20;;
43152;SDS011;28756;49.064;9.290;2023-11-21T09:37:04;1.33;;;1.20;;
43152;SDS011;28756;49.064;9.290;2023-11-21T09:39:30;3.05;;;1.40;;
43152;SDS011;28756;49.064;9.290;2023-11-21T09:42:09;4.65;;;1.50;;
43152;SDS011;28756;49.064;9.290;2023-11-21T09:44:40;2.50;;;1.30;;
43152;SDS011;28756;49.064;9.290;2023-11-21T09:47:18;2.55;;;1.15;;
43152;SDS011;28756;49.064;9.290;2023-11-21T09:49:47;1.85;;;1.05;;
43152;SDS011;28756;49.064;9.290;2023-11-21T09:52:27;1.25;;;1.08;;
43152;SDS011;28756;49.064;9.290;2023-11-21T09:54:53;1.05;;;0.80;;
43152;SDS011;28756;49.064;9.290;2023-11-21T09:57:23;1.88;;;1.00;;
43152;SDS011;28756;49.064;9.290;2023-11-21T09:59:50;2.55;;;1.05;;
43152;SDS011;28756;49.064;9.290;2023-11-21T10:02:20;1.63;;;1.10;;
43152;SDS011;28756;49.064;9.290;2023-11-21T10:04:51;1.60;;;1.20;;
43152;SDS011;28756;49.064;9.290;2023-11-21T10:07:17;1.17;;;0.93;;
43152;SDS011;28756;49.064;9.290;2023-11-21T10:09:43;2.40;;;1.20;;
43152;SDS011;28756;49.064;9.290;2023-11-21T10:12:09;1.63;;;1.00;;
43152;SDS011;28756;49.064;9.290;2023-11-21T10:14:36;1.90;;;1.20;;
43152;SDS011;28756;49.064;9.290;2023-11-21T10:17:02;0.80;;;0.80;;
43152;SDS011;28756;49.064;9.290;2023-11-21T10:19:28;1.77;;;1.10;;
43152;SDS011;28756;49.064;9.290;2023-11-21T10:21:53;1.77;;;1.00;;
43152;SDS011;28756;49.064;9.290;2023-11-21T10:24:19;1.00;;;0.90;;
43152;SDS011;28756;49.064;9.290;2023-11-21T10:26:45;2.03;;;1.10;;
43152;SDS011;28756;49.064;9.290;2023-11-21T10:29:13;1.33;;;1.05;;
43152;SDS011;28756;49.064;9.290;2023-11-21T10:31:41;2.85;;;1.55;;
43152;SDS011;28756;49.064;9.290;2023-11-21T10:34:14;1.30;;;1.05;;
43152;SDS011;28756;49.064;9.290;2023-11-21T10:36:40;1.25;;;1.02;;
43152;SDS011;28756;49.064;9.290;2023-11-21T10:39:06;2.38;;;1.40;;
43152;SDS011;28756;49.064;9.290;2023-11-21T10:41:32;1.95;;;1.10;;
43152;SDS011;28756;49.064;9.290;2023-11-21T10:43:57;1.80;;;1.08;;
43152;SDS011;28756;49.064;9.290;2023-11-21T10:46:23;2.08;;;1.00;;
43152;SDS011;28756;49.064;9.290;2023-11-21T10:48:54;1.40;;;1.00;;
43152;SDS011;28756;49.064;9.290;2023-11-21T10:51:21;0.98;;;0.80;;
43152;SDS011;28756;49.064;9.290;2023-11-21T10:53:46;1.40;;;0.85;;
43152;SDS011;28756;49.064;9.290;2023-11-21T10:56:13;1.08;;;0.88;;
43152;SDS011;28756;49.064;9.290;2023-11-21T10:58:44;1.02;;;0.93;;
43152;SDS011;28756;49.064;9.290;2023-11-21T11:01:10;1.10;;;1.00;;
43152;SDS011;28756;49.064;9.290;2023-11-21T11:03:37;1.98;;;1.10;;
43152;SDS011;28756;49.064;9.290;2023-11-21T11:06:03;1.20;;;0.90;;
43152;SDS011;28756;49.064;9.290;2023-11-21T11:08:32;1.30;;;1.15;;
43152;SDS011;28756;49.064;9.290;2023-11-21T11:10:59;1.30;;;1.20;;
43152;SDS011;28756;49.064;9.290;2023-11-21T11:13:24;1.20;;;1.10;;
43152;SDS011;28756;49.064;9.290;2023-11-21T11:15:50;2.17;;;1.10;;
43152;SDS011;28756;49.064;9.290;2023-11-21T11:18:16;1.10;;;1.00;;
43152;SDS011;28756;49.064;9.290;2023-11-21T11:20:42;1.00;;;0.90;;
43152;SDS011;28756;49.064;9.290;2023-11-21T11:23:12;0.90;;;0.77;;
43152;SDS011;28756;49.064;9.290;2023-11-21T11:26:09;1.10;;;1.00;;
43152;SDS011;28756;49.064;9.290;2023-11-21T11:37:29;0.90;;;0.73;;
43152;SDS011;28756;49.064;9.290;2023-11-21T11:39:55;1.10;;;0.98;;
43152;SDS011;28756;49.064;9.290;2023-11-21T11:42:22;1.23;;;0.90;;
43152;SDS011;28756;49.064;9.290;2023-11-21T11:44:49;1.42;;;0.80;;
43152;SDS011;28756;49.064;9.290;2023-11-21T11:47:20;2.10;;;0.70;;
43152;SDS011;28756;49.064;9.290;2023-11-21T11:52:51;1.50;;;1.25;;
43152;SDS011;28756;49.064;9.290;2023-11-21T11:55:20;1.55;;;1.20;;
43152;SDS011;28756;49.064;9.290;2023-11-21T11:57:48;2.33;;;1.10;;
43152;SDS011;28756;49.064;9.290;2023-11-21T12:00:18;1.83;;;1.08;;
43152;SDS011;28756;49.064;9.290;2023-11-21T12:02:48;2.10;;;1.40;;
43152;SDS011;28756;49.064;9.290;2023-11-21T12:05:14;1.77;;;1.13;;
43152;SDS011;28756;49.064;9.290;2023-11-21T12:07:50;1.30;;;1.20;;
43152;SDS011;28756;49.064;9.290;2023-11-21T12:10:21;2.67;;;1.60;;
43152;SDS011;28756;49.064;9.290;2023-11-21T12:12:49;2.25;;;1.38;;
43152;SDS011;28756;49.064;9.290;2023-11-21T12:15:37;1.08;;;0.98;;
43152;SDS011;28756;49.064;9.290;2023-11-21T12:18:03;0.93;;;0.82;;
43152;SDS011;28756;49.064;9.290;2023-11-21T12:20:29;2.92;;;1.35;;
43152;SDS011;28756;49.064;9.290;2023-11-21T12:22:56;0.93;;;0.90;;
43152;SDS011;28756;49.064;9.290;2023-11-21T12:25:25;0.63;;;0.60;;
43152;SDS011;28756;49.064;9.290;2023-11-21T12:27:54;0.75;;;0.63;;
43152;SDS011;28756;49.064;9.290;2023-11-21T12:30:22;2.15;;;0.60;;
43152;SDS011;28756;49.064;9.290;2023-11-21T12:32:50;0.50;;;0.50;;
43152;SDS011;28756;49.064;9.290;2023-11-21T12:35:17;0.70;;;0.50;;
43152;SDS011;28756;49.064;9.290;2023-11-21T12:37:47;0.60;;;0.43;;
43152;SDS011;28756;49.064;9.290;2023-11-21T12:40:13;0.65;;;0.60;;
43152;SDS011;28756;49.064;9.290;2023-11-21T12:42:42;0.60;;;0.60;;
43152;SDS011;28756;49.064;9.290;2023-11-21T12:48:01;1.00;;;0.70;;
43152;SDS011;28756;49.064;9.290;2023-11-21T12:50:32;0.88;;;0.65;;
43152;SDS011;28756;49.064;9.290;2023-11-21T12:53:02;0.80;;;0.70;;
43152;SDS011;28756;49.064;9.290;2023-11-21T12:55:34;0.63;;;0.60;;
43152;SDS011;28756;49.064;9.290;2023-11-21T12:58:03;0.80;;;0.70;;
43152;SDS011;28756;49.064;9.290;2023-11-21T13:00:39;0.93;;;0.70;;
43152;SDS011;28756;49.064;9.290;2023-11-21T13:03:08;1.02;;;0.70;;
43152;SDS011;28756;49.064;9.290;2023-11-21T13:05:35;0.73;;;0.70;;
43152;SDS011;28756;49.064;9.290;2023-11-21T13:08:07;1.38;;;0.80;;
43152;SDS011;28756;49.064;9.290;2023-11-21T13:10:51;1.58;;;1.00;;
43152;SDS011;28756;49.064;9.290;2023-11-21T13:13:41;1.00;;;0.90;;
43152;SDS011;28756;49.064;9.290;2023-11-21T13:16:08;0.88;;;0.70;;
43152;SDS011;28756;49.064;9.290;2023-11-21T13:18:34;1.60;;;1.00;;
43152;SDS011;28756;49.064;9.290;2023-11-21T13:21:04;1.30;;;0.90;;
43152;SDS011;28756;49.064;9.290;2023-11-21T13:23:35;1.08;;;0.90;;
43152;SDS011;28756;49.064;9.290;2023-11-21T13:26:03;1.73;;;1.05;;
43152;SDS011;28756;49.064;9.290;2023-11-21T13:28:29;2.08;;;1.13;;
43152;SDS011;28756;49.064;9.290;2023-11-21T13:30:58;3.20;;;1.10;;
43152;SDS011;28756;49.064;9.290;2023-11-21T13:33:28;1.35;;;0.90;;
43152;SDS011;28756;49.064;9.290;2023-11-21T13:35:53;1.00;;;0.90;;
43152;SDS011;28756;49.064;9.290;2023-11-21T13:38:21;1.50;;;0.80;;
43152;SDS011;28756;49.064;9.290;2023-11-21T13:40:50;1.42;;;1.00;;
43152;SDS011;28756;49.064;9.290;2023-11-21T13:43:19;2.25;;;1.00;;
43152;SDS011;28756;49.064;9.290;2023-11-21T13:45:47;1.13;;;1.00;;
43152;SDS011;28756;49.064;9.290;2023-11-21T13:48:19;1.27;;;0.90;;
43152;SDS011;28756;49.064;9.290;2023-11-21T13:50:50;1.30;;;1.17;;
43152;SDS011;28756;49.064;9.290;2023-11-21T13:53:33;1.13;;;0.90;;
43152;SDS011;28756;49.064;9.290;2023-11-21T13:56:02;2.30;;;1.10;;
43152;SDS011;28756;49.064;9.290;2023-11-21T13:58:28;1.33;;;1.02;;
43152;SDS011;28756;49.064;9.290;2023-11-21T14:01:08;1.65;;;1.00;;
43152;SDS011;28756;49.064;9.290;2023-11-21T14:03:54;1.20;;;1.00;;
43152;SDS011;28756;49.064;9.290;2023-11-21T14:06:27;2.30;;;1.10;;
43152;SDS011;28756;49.064;9.290;2023-11-21T14:08:59;1.20;;;0.90;;
43152;SDS011;28756;49.064;9.290;2023-11-21T14:11:30;2.05;;;1.20;;
43152;SDS011;28756;49.064;9.290;2023-11-21T14:13:55;2.92;;;1.20;;
43152;SDS011;28756;49.064;9.290;2023-11-21T14:16:21;1.65;;;1.10;;
43152;SDS011;28756;49.064;9.290;2023-11-21T14:18:47;1.85;;;1.08;;
43152;SDS011;28756;49.064;9.290;2023-11-21T14:21:36;2.25;;;1.13;;
43152;SDS011;28756;49.064;9.290;2023-11-21T14:24:01;1.75;;;1.20;;
43152;SDS011;28756;49.064;9.290;2023-11-21T14:26:27;1.95;;;1.17;;
43152;SDS011;28756;49.064;9.290;2023-11-21T14:28:54;1.73;;;1.23;;
43152;SDS011;28756;49.064;9.290;2023-11-21T14:31:19;1.35;;;1.10;;
43152;SDS011;28756;49.064;9.290;2023-11-21T14:33:45;8.60;;;2.10;;
43152;SDS011;28756;49.064;9.290;2023-11-21T14:36:11;2.78;;;1.90;;
43152;SDS011;28756;49.064;9.290;2023-11-21T14:38:36;1.77;;;1.60;;
43152;SDS011;28756;49.064;9.290;2023-11-21T14:41:04;2.78;;;1.80;;
43152;SDS011;28756;49.064;9.290;2023-11-21T14:43:32;3.75;;;1.80;;
43152;SDS011;28756;49.064;9.290;2023-11-21T14:46:00;2.58;;;2.22;;
43152;SDS011;28756;49.064;9.290;2023-11-21T14:48:27;2.75;;;1.90;;
43152;SDS011;28756;49.064;9.290;2023-11-21T14:51:10;2.58;;;1.90;;
43152;SDS011;28756;49.064;9.290;2023-11-21T14:53:53;2.92;;;1.90;;
43152;SDS011;28756;49.064;9.290;2023-11-21T14:56:22;2.20;;;2.00;;
43152;SDS011;28756;49.064;9.290;2023-11-21T14:58:57;2.78;;;2.22;;
43152;SDS011;28756;49.064;9.290;2023-11-21T15:01:27;3.65;;;1.70;;
43152;SDS011;28756;49.064;9.290;2023-11-21T15:04:20;3.42;;;2.20;;
43152;SDS011;28756;49.064;9.290;2023-11-21T15:06:59;3.13;;;2.30;;